Time;durP1;ratioP1;P1;durP2;ratioP2;P2;SDS_P1;SDS_P2;PMS_P1;PMS_P2;Temp;Humidity;BMP_temperature;BMP_pressure;BME280_temperature;BME280_humidity;BME280_pressure;Samples;Min_cycle;Max_cycle;Signal;HPM_P1;HPM_P2
2023/06/25 00:00:32;;;;;;;8.15;7.43;;;20.70;99.90;;;;;;5107871;28;20216;-61
2023/06/25 00:03:00;;;;;;;7.30;6.60;;;20.60;99.90;;;;;;5099504;28;20274;-61
2023/06/25 00:05:29;;;;;;;10.38;7.53;;;20.60;99.90;;;;;;5099835;28;20211;-61
2023/06/25 00:07:58;;;;;;;8.80;7.00;;;20.60;99.90;;;;;;5107616;28;20232;-61
2023/06/25 00:10:26;;;;;;;9.65;7.85;;;20.50;99.90;;;;;;5094465;28;20284;-61
2023/06/25 00:12:53;;;;;;;7.85;7.07;;;20.50;99.90;;;;;;5104862;28;20224;-61
2023/06/25 00:15:21;;;;;;;8.00;7.20;;;20.40;99.90;;;;;;5101916;28;20199;-61
2023/06/25 00:17:49;;;;;;;9.98;7.65;;;20.40;99.90;;;;;;5096763;28;20260;-61
2023/06/25 00:20:17;;;;;;;8.38;7.53;;;20.40;99.90;;;;;;5107929;28;20714;-61
2023/06/25 00:22:47;;;;;;;7.97;7.07;;;20.40;99.90;;;;;;5097329;28;20230;-61
2023/06/25 00:25:33;;;;;;;8.77;6.90;;;20.40;99.90;;;;;;5098615;28;20208;-61
2023/06/25 00:28:01;;;;;;;8.52;7.45;;;20.40;99.90;;;;;;5108096;28;20223;-61
2023/06/25 00:30:29;;;;;;;10.55;7.10;;;20.40;99.90;;;;;;5095427;28;20215;-61
2023/06/25 00:32:58;;;;;;;8.05;7.35;;;20.30;99.90;;;;;;5103201;28;20196;-61
2023/06/25 00:35:27;;;;;;;8.48;7.68;;;20.30;99.90;;;;;;5105466;28;20638;-61
2023/06/25 00:38:01;;;;;;;7.57;6.88;;;20.30;99.90;;;;;;5102553;28;20672;-61
2023/06/25 00:40:29;;;;;;;8.15;6.97;;;20.30;99.90;;;;;;5101280;28;20222;-61
2023/06/25 00:42:58;;;;;;;7.60;7.00;;;20.20;99.90;;;;;;5100786;28;20200;-61
2023/06/25 00:45:26;;;;;;;9.40;7.40;;;20.20;99.90;;;;;;5096396;28;20207;-61
2023/06/25 00:47:54;;;;;;;8.63;7.80;;;20.10;99.90;;;;;;5110876;28;20290;-61
2023/06/25 00:50:22;;;;;;;8.63;7.47;;;20.20;99.90;;;;;;5098715;28;20317;-61
2023/06/25 00:52:51;;;;;;;8.32;7.53;;;20.10;99.90;;;;;;5109034;28;20203;-62
2023/06/25 00:55:20;;;;;;;8.27;7.47;;;20.10;99.90;;;;;;5095975;28;20272;-61
2023/06/25 00:57:48;;;;;;;8.15;7.35;;;20.10;99.90;;;;;;5109721;28;20272;-61
2023/06/25 01:00:17;;;;;;;10.02;7.60;;;20.10;99.90;;;;;;5098082;28;20273;-62
2023/06/25 01:02:47;;;;;;;9.63;8.02;;;20.10;99.90;;;;;;5109358;28;20228;-61
2023/06/25 01:05:18;;;;;;;10.20;7.40;;;20.10;99.90;;;;;;5098616;28;20374;-61
2023/06/25 01:07:46;;;;;;;10.25;8.05;;;20.10;99.90;;;;;;5109202;28;20203;-61
2023/06/25 01:10:14;;;;;;;9.60;8.15;;;20.10;99.90;;;;;;5097379;28;20238;-63
2023/06/25 01:12:43;;;;;;;9.27;7.85;;;20.10;99.90;;;;;;5100014;28;20199;-63
2023/06/25 01:15:12;;;;;;;12.57;8.77;;;20.00;99.90;;;;;;5105435;28;20224;-63
2023/06/25 01:17:40;;;;;;;8.32;7.53;;;20.00;99.90;;;;;;5108407;28;20298;-63
2023/06/25 01:20:11;;;;;;;9.27;8.10;;;20.00;99.90;;;;;;5098134;28;20307;-62
2023/06/25 01:22:41;;;;;;;9.20;8.30;;;19.90;99.90;;;;;;5109804;28;20196;-63
2023/06/25 01:25:09;;;;;;;9.32;8.35;;;19.90;99.90;;;;;;5103533;28;20203;-62
2023/06/25 01:27:37;;;;;;;8.90;8.02;;;19.90;99.90;;;;;;5101542;28;20208;-62
2023/06/25 01:30:07;;;;;;;9.25;8.32;;;19.90;99.90;;;;;;5111361;28;20360;-62
2023/06/25 01:32:35;;;;;;;9.35;8.43;;;19.90;99.90;;;;;;5098995;28;20223;-63
2023/06/25 01:35:04;;;;;;;9.30;7.82;;;19.90;99.90;;;;;;5105937;28;20207;-62
2023/06/25 01:37:32;;;;;;;10.50;8.85;;;19.80;99.90;;;;;;5106610;28;20298;-63
2023/06/25 01:40:01;;;;;;;9.10;8.20;;;19.80;99.90;;;;;;5096584;28;20240;-63
2023/06/25 01:42:29;;;;;;;11.63;8.30;;;19.80;99.90;;;;;;5094300;28;20279;-62
2023/06/25 01:44:57;;;;;;;8.60;7.80;;;19.80;99.90;;;;;;5101548;28;20348;-63
2023/06/25 01:47:25;;;;;;;9.40;8.60;;;19.70;99.90;;;;;;5102882;28;20663;-63
2023/06/25 01:49:53;;;;;;;10.23;8.85;;;19.70;99.90;;;;;;5109431;28;20203;-63
2023/06/25 01:52:21;;;;;;;9.07;8.27;;;19.70;99.90;;;;;;5097208;28;20235;-63
2023/06/25 01:54:49;;;;;;;9.73;8.75;;;19.60;99.90;;;;;;5112936;28;20766;-63
2023/06/25 01:57:18;;;;;;;9.52;8.63;;;19.60;99.90;;;;;;5103861;28;20274;-63
2023/06/25 01:59:46;;;;;;;9.57;8.57;;;19.60;99.90;;;;;;5108445;28;20268;-63
2023/06/25 02:02:14;;;;;;;10.90;8.35;;;19.50;99.90;;;;;;5097153;28;20629;-62
2023/06/25 02:04:42;;;;;;;10.18;8.43;;;19.50;99.90;;;;;;5108198;28;20222;-61
2023/06/25 02:07:10;;;;;;;10.38;7.82;;;19.50;99.90;;;;;;5103042;28;20230;-61
2023/06/25 02:09:38;;;;;;;10.18;8.35;;;19.50;99.90;;;;;;5100697;28;20200;-61
2023/06/25 02:12:07;;;;;;;9.32;8.35;;;19.40;99.90;;;;;;5110244;28;20242;-61
2023/06/25 02:14:36;;;;;;;9.20;8.30;;;19.40;99.90;;;;;;5097903;28;20227;-61
2023/06/25 02:17:04;;;;;;;9.32;8.43;;;19.40;99.90;;;;;;5105135;28;20295;-61
2023/06/25 02:19:32;;;;;;;9.05;8.15;;;19.40;99.90;;;;;;5105839;28;20593;-61
2023/06/25 02:22:00;;;;;;;11.55;8.45;;;19.30;99.90;;;;;;5097301;28;20307;-61
2023/06/25 02:24:28;;;;;;;9.10;8.30;;;19.30;99.90;;;;;;5093570;28;20269;-61
2023/06/25 02:26:56;;;;;;;9.07;8.20;;;19.30;99.90;;;;;;5100757;28;20207;-61
2023/06/25 02:29:24;;;;;;;9.40;8.57;;;19.20;99.90;;;;;;5102356;28;20567;-61
2023/06/25 02:31:53;;;;;;;9.25;8.35;;;19.20;99.90;;;;;;5108203;28;20215;-61
2023/06/25 02:34:21;;;;;;;9.35;8.40;;;19.20;99.90;;;;;;5096744;28;20196;-61
2023/06/25 02:36:50;;;;;;;10.82;8.35;;;19.20;99.90;;;;;;5106649;28;20210;-61
2023/06/25 02:39:18;;;;;;;9.98;8.43;;;19.20;99.90;;;;;;5103600;28;20255;-61
2023/06/25 02:41:46;;;;;;;11.75;8.88;;;19.20;99.90;;;;;;5098929;28;20220;-61
2023/06/25 02:44:14;;;;;;;10.75;7.65;;;19.10;99.90;;;;;;5109793;28;20302;-61
2023/06/25 02:46:41;;;;;;;9.55;8.55;;;19.10;99.90;;;;;;5098034;28;20259;-61
2023/06/25 02:49:11;;;;;;;9.85;8.70;;;19.10;99.90;;;;;;5104154;28;20204;-61
2023/06/25 02:51:39;;;;;;;9.50;7.88;;;19.10;99.90;;;;;;5106158;28;20223;-61
2023/06/25 02:54:06;;;;;;;11.73;8.80;;;19.00;99.90;;;;;;5096815;28;20702;-61
2023/06/25 02:56:34;;;;;;;12.10;8.00;;;19.00;99.90;;;;;;5096752;28;20738;-61
2023/06/25 02:59:02;;;;;;;10.95;8.02;;;19.00;99.90;;;;;;5104492;28;20285;-61
2023/06/25 03:01:30;;;;;;;9.00;8.10;;;19.00;99.90;;;;;;5104995;28;20638;-61
2023/06/25 03:03:58;;;;;;;9.50;8.60;;;19.00;99.90;;;;;;5103526;28;20203;-61
2023/06/25 03:06:27;;;;;;;9.05;8.13;;;18.90;99.90;;;;;;5104970;28;20654;-61
2023/06/25 03:08:55;;;;;;;9.52;8.57;;;18.90;99.90;;;;;;5099883;28;20227;-58
2023/06/25 03:11:23;;;;;;;10.98;8.20;;;18.90;99.90;;;;;;5101211;28;20653;-60
2023/06/25 03:13:51;;;;;;;8.52;7.60;;;18.80;99.90;;;;;;5107695;28;20234;-60
2023/06/25 03:16:18;;;;;;;9.63;8.50;;;18.80;99.90;;;;;;5095635;28;20287;-60
2023/06/25 03:18:46;;;;;;;12.38;8.60;;;18.70;99.90;;;;;;5106492;28;20222;-60
2023/06/25 03:21:14;;;;;;;9.68;8.68;;;18.70;99.90;;;;;;5102184;28;20710;-60
2023/06/25 03:23:44;;;;;;;9.75;8.35;;;18.70;99.90;;;;;;5098736;28;20738;-60
2023/06/25 03:26:11;;;;;;;9.27;8.38;;;18.70;99.90;;;;;;5108549;28;20250;-60
2023/06/25 03:28:39;;;;;;;8.80;8.10;;;18.60;99.90;;;;;;5097460;28;20246;-59
2023/06/25 03:31:07;;;;;;;8.85;8.05;;;18.60;99.90;;;;;;5103293;28;20772;-61
2023/06/25 03:33:35;;;;;;;9.75;8.75;;;18.60;99.90;;;;;;5104874;28;20236;-61
2023/06/25 03:36:03;;;;;;;9.93;8.23;;;18.60;99.90;;;;;;5095268;28;20279;-61
2023/06/25 03:38:31;;;;;;;11.82;8.40;;;18.60;99.90;;;;;;5108199;28;20260;-61
2023/06/25 03:41:00;;;;;;;8.68;7.88;;;18.60;99.90;;;;;;5099920;28;20257;-61
2023/06/25 03:43:28;;;;;;;9.23;8.40;;;18.50;99.90;;;;;;5100374;28;20885;-59
2023/06/25 03:45:56;;;;;;;16.00;8.10;;;18.50;99.90;;;;;;5107583;28;20242;-58
2023/06/25 03:48:24;;;;;;;9.43;8.43;;;18.50;99.90;;;;;;5095442;28;20279;-58
2023/06/25 03:50:52;;;;;;;9.15;8.02;;;18.50;99.90;;;;;;5105102;28;20216;-63
2023/06/25 03:53:21;;;;;;;9.50;8.02;;;18.50;99.90;;;;;;5102624;28;20264;-61
2023/06/25 03:55:49;;;;;;;10.77;8.60;;;18.50;99.90;;;;;;5110566;28;20286;-63
2023/06/25 03:58:18;;;;;;;9.32;7.93;;;18.50;99.90;;;;;;5095272;28;20663;-61
2023/06/25 04:00:46;;;;;;;9.65;8.38;;;18.50;99.90;;;;;;5105944;28;20304;-61
2023/06/25 04:03:14;;;;;;;12.80;8.57;;;18.60;99.90;;;;;;5091038;28;20204;-60
2023/06/25 04:05:42;;;;;;;9.35;7.88;;;18.60;99.90;;;;;;5104897;28;20286;-61
2023/06/25 04:08:10;;;;;;;10.50;8.40;;;18.60;99.90;;;;;;5095214;28;20232;-61
2023/06/25 04:10:39;;;;;;;9.05;8.15;;;18.60;99.90;;;;;;5106846;28;20223;-61
2023/06/25 04:13:06;;;;;;;8.18;7.38;;;18.60;99.90;;;;;;5100535;28;20222;-61
2023/06/25 04:15:36;;;;;;;8.63;7.85;;;18.60;99.90;;;;;;5098659;28;20670;-61
2023/06/25 04:18:04;;;;;;;9.23;8.02;;;18.70;99.90;;;;;;5108125;28;20246;-61
2023/06/25 04:20:32;;;;;;;8.45;7.65;;;18.70;99.90;;;;;;5095573;28;20302;-61
2023/06/25 04:23:00;;;;;;;9.07;8.05;;;18.80;99.90;;;;;;5103671;28;20279;-60
2023/06/25 04:25:28;;;;;;;8.80;7.97;;;18.80;99.90;;;;;;5103302;28;20282;-60
2023/06/25 04:27:56;;;;;;;8.38;7.57;;;18.80;99.90;;;;;;5095836;28;20204;-61
2023/06/25 04:30:24;;;;;;;9.77;8.77;;;18.80;99.90;;;;;;5108101;28;20212;-61
2023/06/25 04:32:54;;;;;;;11.07;7.88;;;18.90;99.90;;;;;;5098025;28;21062;-61
2023/06/25 04:35:22;;;;;;;8.88;8.07;;;18.90;99.90;;;;;;5100354;28;20219;-61
2023/06/25 04:37:50;;;;;;;8.45;7.70;;;19.00;99.90;;;;;;5106441;28;20282;-61
2023/06/25 04:40:18;;;;;;;8.20;7.50;;;19.00;99.90;;;;;;5094484;28;20306;-61
2023/06/25 04:42:46;;;;;;;8.73;7.45;;;19.00;99.90;;;;;;5105618;28;20279;-61
2023/06/25 04:45:14;;;;;;;8.90;7.90;;;19.10;99.90;;;;;;5100795;28;20684;-61
2023/06/25 04:47:42;;;;;;;6.95;6.35;;;19.20;99.90;;;;;;5097790;28;20256;-61
2023/06/25 04:50:11;;;;;;;8.95;6.93;;;19.20;99.90;;;;;;5107940;28;20636;-61
2023/06/25 04:52:39;;;;;;;7.57;6.65;;;19.30;99.90;;;;;;5096247;28;20199;-61
2023/06/25 04:55:08;;;;;;;7.18;6.55;;;19.30;99.90;;;;;;5110072;28;20196;-61
2023/06/25 04:57:35;;;;;;;8.00;6.60;;;19.40;99.90;;;;;;5098203;28;20232;-61
2023/06/25 05:00:04;;;;;;;9.32;7.05;;;19.40;99.90;;;;;;5107910;28;20310;-61
2023/06/25 05:02:32;;;;;;;7.82;7.03;;;19.40;99.90;;;;;;5095621;28;20204;-61
2023/06/25 05:05:00;;;;;;;10.52;7.50;;;19.50;99.90;;;;;;5103466;28;20200;-61
2023/06/25 05:07:30;;;;;;;7.82;7.07;;;19.60;99.90;;;;;;5103346;28;20248;-62
2023/06/25 05:09:57;;;;;;;8.40;7.05;;;19.60;99.90;;;;;;5095298;28;20733;-61
2023/06/25 05:12:25;;;;;;;8.57;7.03;;;19.70;99.90;;;;;;5111052;28;20203;-62
2023/06/25 05:14:53;;;;;;;7.20;6.32;;;19.80;99.90;;;;;;5106081;28;20567;-62
2023/06/25 05:17:21;;;;;;;7.28;6.68;;;19.80;99.90;;;;;;5106046;28;20290;-61
2023/06/25 05:19:49;;;;;;;6.60;6.10;;;19.90;99.90;;;;;;5104423;28;20254;-62
2023/06/25 05:22:17;;;;;;;7.47;6.82;;;19.90;99.90;;;;;;5102905;28;20616;-62
2023/06/25 05:24:47;;;;;;;7.80;6.82;;;19.90;99.90;;;;;;5104640;28;20200;-62
2023/06/25 05:27:15;;;;;;;7.55;6.75;;;20.00;99.90;;;;;;5106061;28;20630;-62
2023/06/25 05:29:43;;;;;;;7.10;6.43;;;20.10;99.90;;;;;;5101225;28;20579;-61
2023/06/25 05:32:11;;;;;;;6.57;5.97;;;20.10;99.90;;;;;;5111617;28;20238;-63
2023/06/25 05:34:39;;;;;;;6.95;6.40;;;20.20;99.90;;;;;;5099362;28;20211;-61
2023/06/25 05:37:07;;;;;;;9.07;6.90;;;20.20;99.90;;;;;;5110765;28;20234;-60
2023/06/25 05:39:35;;;;;;;7.25;6.55;;;20.30;99.90;;;;;;5102114;28;20828;-60
2023/06/25 05:42:05;;;;;;;7.20;6.47;;;20.30;99.90;;;;;;5111421;28;20223;-62
2023/06/25 05:44:33;;;;;;;6.68;5.97;;;20.40;99.90;;;;;;5098672;28;20298;-58
2023/06/25 05:47:00;;;;;;;6.50;5.93;;;20.40;99.90;;;;;;5106551;28;20649;-62
2023/06/25 05:49:28;;;;;;;6.35;5.80;;;20.50;99.90;;;;;;5106581;28;20200;-61
2023/06/25 05:51:56;;;;;;;6.50;5.85;;;20.60;99.90;;;;;;5109037;28;20231;-60
2023/06/25 05:54:24;;;;;;;6.60;6.00;;;20.60;99.90;;;;;;5103667;28;20286;-63
2023/06/25 05:56:52;;;;;;;6.13;5.57;;;20.70;99.90;;;;;;5101716;28;20274;-63
2023/06/25 05:59:21;;;;;;;7.20;5.68;;;20.80;99.90;;;;;;5103886;28;20292;-58
2023/06/25 06:01:49;;;;;;;6.60;5.82;;;20.80;99.90;;;;;;5105775;28;20658;-63
2023/06/25 06:04:17;;;;;;;6.60;5.95;;;20.90;99.90;;;;;;5101841;28;20307;-63
2023/06/25 06:06:47;;;;;;;6.72;5.72;;;20.90;99.90;;;;;;5108371;28;20790;-63
2023/06/25 06:09:15;;;;;;;6.72;5.82;;;21.00;99.90;;;;;;5104292;28;20254;-64
2023/06/25 06:11:43;;;;;;;6.35;5.85;;;21.00;99.90;;;;;;5107342;28;20259;-63
2023/06/25 06:14:11;;;;;;;6.07;5.45;;;21.10;99.90;;;;;;5097251;28;20208;-62
2023/06/25 06:16:40;;;;;;;7.93;5.72;;;21.10;99.90;;;;;;5109038;28;20287;-62
2023/06/25 06:19:08;;;;;;;6.72;6.13;;;21.10;99.90;;;;;;5102916;28;20640;-63
2023/06/25 06:21:36;;;;;;;6.65;6.05;;;21.10;99.90;;;;;;5100780;28;20698;-61
2023/06/25 06:24:04;;;;;;;4.72;4.32;;;21.20;99.90;;;;;;5110718;28;20288;-59
2023/06/25 06:26:32;;;;;;;5.30;4.63;;;21.30;99.90;;;;;;5096885;28;20279;-59
2023/06/25 06:29:03;;;;;;;4.60;4.20;;;21.40;99.90;;;;;;5106160;28;20286;-59
2023/06/25 06:31:31;;;;;;;6.15;5.65;;;21.60;99.90;;;;;;5105832;28;20620;-59
2023/06/25 06:34:00;;;;;;;6.22;5.72;;;21.70;99.90;;;;;;5097799;28;20262;-59
2023/06/25 06:36:28;;;;;;;5.28;4.90;;;21.80;99.90;;;;;;5096815;28;20191;-59
2023/06/25 06:38:56;;;;;;;7.82;6.00;;;21.80;99.90;;;;;;5106429;28;20668;-60
2023/06/25 06:41:24;;;;;;;6.53;5.93;;;21.80;99.90;;;;;;5104641;28;20327;-59
2023/06/25 06:43:52;;;;;;;5.95;5.47;;;21.90;99.90;;;;;;5098369;28;20207;-59
2023/06/25 06:46:20;;;;;;;7.47;5.75;;;21.90;99.90;;;;;;5109753;28;20885;-59
2023/06/25 06:48:48;;;;;;;5.70;5.20;;;22.00;99.90;;;;;;5099590;28;20571;-60
2023/06/25 06:51:17;;;;;;;7.90;6.05;;;22.00;99.90;;;;;;5103179;28;20780;-59
2023/06/25 06:53:45;;;;;;;7.45;5.50;;;22.10;99.90;;;;;;5107502;28;20245;-59
2023/06/25 06:56:13;;;;;;;6.35;5.75;;;22.10;99.90;;;;;;5110276;28;20298;-60
2023/06/25 06:58:41;;;;;;;6.45;5.95;;;22.20;99.90;;;;;;5098173;28;20342;-61
2023/06/25 07:01:08;;;;;;;8.15;5.55;;;22.20;99.90;;;;;;5104130;28;20303;-61
2023/06/25 07:03:36;;;;;;;7.25;5.80;;;22.30;99.90;;;;;;5106261;28;20253;-62
2023/06/25 07:06:04;;;;;;;6.20;5.70;;;22.30;99.90;;;;;;5095985;28;20687;-61
2023/06/25 07:08:33;;;;;;;7.43;5.60;;;22.40;99.90;;;;;;5109195;28;20671;-61
2023/06/25 07:11:02;;;;;;;6.38;5.82;;;22.50;99.90;;;;;;5110697;22;20809;-60
2023/06/25 07:13:30;;;;;;;6.00;5.50;;;22.50;99.90;;;;;;5105446;28;20218;-58
2023/06/25 07:15:58;;;;;;;7.32;5.65;;;22.60;99.90;;;;;;5096797;28;20227;-59
2023/06/25 07:18:26;;;;;;;5.97;5.35;;;22.70;99.90;;;;;;5096139;28;20668;-58
2023/06/25 07:20:54;;;;;;;5.72;5.15;;;22.70;99.90;;;;;;5105510;28;20229;-59
2023/06/25 07:23:22;;;;;;;6.10;5.70;;;22.80;99.90;;;;;;5092811;28;20203;-59
2023/06/25 07:25:51;;;;;;;6.88;5.55;;;22.80;99.90;;;;;;5092028;28;20235;-58
2023/06/25 07:28:19;;;;;;;6.03;5.55;;;22.90;99.90;;;;;;5092556;28;20211;-57
2023/06/25 07:30:48;;;;;;;5.93;4.78;;;23.00;99.90;;;;;;5092463;28;20251;-57
2023/06/25 07:33:16;;;;;;;5.88;5.38;;;23.10;99.90;;;;;;5092539;28;20630;-58
2023/06/25 07:35:44;;;;;;;5.88;5.38;;;23.10;99.90;;;;;;5092086;28;20283;-59
2023/06/25 07:38:12;;;;;;;5.80;5.35;;;23.30;99.90;;;;;;5091278;28;20753;-60
2023/06/25 07:40:40;;;;;;;5.47;5.07;;;23.30;99.90;;;;;;5092460;28;20277;-64
2023/06/25 07:43:09;;;;;;;5.97;5.00;;;23.50;99.90;;;;;;5092449;28;20196;-64
2023/06/25 07:45:38;;;;;;;8.32;5.00;;;23.50;99.90;;;;;;5091995;28;20754;-63
2023/06/25 07:48:07;;;;;;;6.07;5.57;;;23.60;99.90;;;;;;5090963;28;20254;-63
2023/06/25 07:50:35;;;;;;;6.55;5.95;;;23.70;99.90;;;;;;5091674;28;20699;-63
2023/06/25 07:53:03;;;;;;;5.53;5.10;;;23.80;99.90;;;;;;5092066;28;20287;-64
2023/06/25 07:55:38;;;;;;;5.50;4.32;;;23.90;99.90;;;;;;5091123;28;20260;-64
2023/06/25 07:58:24;;;;;;;5.43;5.03;;;24.00;99.90;;;;;;5092112;28;20203;-63
2023/06/25 08:00:52;;;;;;;4.97;4.68;;;24.10;99.90;;;;;;5091916;28;20314;-63
2023/06/25 08:03:21;;;;;;;5.38;4.97;;;24.20;99.90;;;;;;5091905;28;20200;-64
2023/06/25 08:05:50;;;;;;;5.68;5.18;;;24.30;99.90;;;;;;5091912;28;20200;-64
2023/06/25 08:08:18;;;;;;;6.60;5.38;;;24.40;99.90;;;;;;5091958;28;20245;-64
2023/06/25 08:10:45;;;;;;;5.63;5.22;;;24.50;99.90;;;;;;5091747;28;20301;-63
2023/06/25 08:13:14;;;;;;;5.85;5.40;;;24.70;99.90;;;;;;5091736;28;20219;-63
2023/06/25 08:15:43;;;;;;;5.40;5.00;;;24.70;99.90;;;;;;5091461;28;20212;-64
2023/06/25 08:18:11;;;;;;;5.18;4.88;;;24.80;99.90;;;;;;5091870;28;20208;-64
2023/06/25 08:20:40;;;;;;;5.80;5.40;;;25.00;99.90;;;;;;5091685;28;20220;-63
2023/06/25 08:23:08;;;;;;;5.70;5.10;;;25.10;99.90;;;;;;5091076;28;20227;-63
2023/06/25 08:25:36;;;;;;;5.20;4.85;;;25.20;99.90;;;;;;5091203;28;20290;-63
2023/06/25 08:28:04;;;;;;;5.57;5.10;;;25.30;99.90;;;;;;5091447;28;20204;-63
2023/06/25 08:30:32;;;;;;;5.20;4.85;;;25.30;99.90;;;;;;5091582;28;20605;-63
2023/06/25 08:33:01;;;;;;;5.85;5.40;;;25.50;99.90;;;;;;5091592;28;20245;-63
2023/06/25 08:35:29;;;;;;;6.03;5.53;;;25.60;99.90;;;;;;5091329;28;20232;-63
2023/06/25 08:37:57;;;;;;;5.82;5.35;;;25.70;99.90;;;;;;5091390;28;20200;-63
2023/06/25 08:40:26;;;;;;;4.78;4.47;;;25.70;99.90;;;;;;5091246;28;20204;-64
2023/06/25 08:42:54;;;;;;;5.97;5.47;;;25.80;99.90;;;;;;5091062;28;20625;-64
2023/06/25 08:45:22;;;;;;;5.57;5.18;;;25.80;99.90;;;;;;5091322;28;20268;-63
2023/06/25 08:47:55;;;;;;;6.22;5.38;;;25.90;99.90;;;;;;5091293;28;20282;-63
2023/06/25 08:50:25;;;;;;;5.55;5.00;;;25.90;99.90;;;;;;5093605;28;20218;-64
2023/06/25 08:52:53;;;;;;;5.53;5.03;;;26.10;99.90;;;;;;5095302;28;20250;-63
2023/06/25 08:55:22;;;;;;;5.80;5.18;;;26.30;99.90;;;;;;5091991;28;20195;-63
2023/06/25 08:57:50;;;;;;;5.72;5.28;;;26.40;99.90;;;;;;5085698;28;20204;-64
2023/06/25 09:00:18;;;;;;;5.13;4.63;;;26.50;99.90;;;;;;5093940;28;20290;-63
2023/06/25 09:02:46;;;;;;;5.63;5.13;;;26.60;99.90;;;;;;5090527;28;20252;-63
2023/06/25 09:05:14;;;;;;;5.47;4.97;;;26.80;99.90;;;;;;5077829;28;20196;-63
2023/06/25 09:07:47;;;;;;;5.32;4.80;;;27.00;99.90;;;;;;5074336;28;20295;-64
2023/06/25 09:10:16;;;;;;;6.35;5.00;;;27.10;99.90;;;;;;5081041;28;20628;-63
2023/06/25 09:12:45;;;;;;;5.40;5.00;;;27.30;99.90;;;;;;5095034;28;20230;-64
2023/06/25 09:15:13;;;;;;;7.38;4.90;;;27.30;99.90;;;;;;5094915;28;20231;-63
2023/06/25 09:17:41;;;;;;;6.15;5.63;;;27.50;99.90;;;;;;5095011;28;20283;-63
2023/06/25 09:20:09;;;;;;;5.50;5.10;;;27.60;99.90;;;;;;5094812;28;20204;-63
2023/06/25 09:22:50;;;;;;;6.90;5.03;;;27.80;99.90;;;;;;5094705;28;20310;-64
2023/06/25 09:25:19;;;;;;;6.10;4.90;;;27.80;99.90;;;;;;5094849;28;20196;-64
2023/06/25 09:27:48;;;;;;;5.53;4.60;;;27.90;99.90;;;;;;5095009;28;20200;-63
2023/06/25 09:30:18;;;;;;;5.10;4.63;;;28.00;99.90;;;;;;5094613;28;20200;-63
2023/06/25 09:32:49;;;;;;;5.00;4.63;;;28.10;99.90;;;;;;5094488;28;20216;-64
2023/06/25 09:35:22;;;;;;;5.00;4.50;;;28.20;99.90;;;;;;5094545;28;20196;-63
2023/06/25 09:37:52;;;;;;;4.95;4.65;;;28.30;99.90;;;;;;5094496;28;20685;-63
2023/06/25 09:40:20;;;;;;;5.90;4.95;;;28.50;99.90;;;;;;5094693;28;20231;-63
2023/06/25 09:42:48;;;;;;;5.10;4.80;;;28.70;99.90;;;;;;5094404;28;20725;-64
2023/06/25 09:45:16;;;;;;;4.70;4.28;;;28.90;99.90;;;;;;5088207;28;20216;-65
2023/06/25 09:47:46;;;;;;;4.97;4.57;;;29.10;99.90;;;;;;5075306;28;20235;-63
2023/06/25 09:50:15;;;;;;;5.07;4.78;;;29.30;99.90;;;;;;5092660;28;20211;-63
2023/06/25 09:52:44;;;;;;;9.48;4.80;;;29.50;99.90;;;;;;5090025;28;20579;-63
2023/06/25 09:55:13;;;;;;;5.15;4.63;;;29.50;99.90;;;;;;5083629;28;20196;-64
2023/06/25 09:57:42;;;;;;;5.45;4.32;;;29.60;99.70;;;;;;5094123;28;20196;-63
2023/06/25 10:00:11;;;;;;;4.30;4.10;;;29.70;99.50;;;;;;5094332;28;20223;-64
2023/06/25 10:02:39;;;;;;;6.78;4.63;;;29.80;97.80;;;;;;5093106;28;20216;-62
2023/06/25 10:05:07;;;;;;;4.93;4.47;;;29.90;97.30;;;;;;5094031;28;20192;-64
2023/06/25 10:07:35;;;;;;;4.97;4.53;;;30.00;99.90;;;;;;5090738;28;20236;-64
2023/06/25 10:10:03;;;;;;;5.07;4.68;;;30.00;99.30;;;;;;5093924;28;20242;-64
2023/06/25 10:12:34;;;;;;;5.68;3.60;;;30.30;99.40;;;;;;5090480;28;20348;-64
2023/06/25 10:15:02;;;;;;;4.45;4.05;;;30.50;99.00;;;;;;5093930;28;20204;-64
2023/06/25 10:17:30;;;;;;;5.00;4.43;;;30.70;99.90;;;;;;5093832;28;20211;-63
2023/06/25 10:19:59;;;;;;;4.30;4.00;;;30.90;96.80;;;;;;5093852;28;20203;-63
2023/06/25 10:22:27;;;;;;;5.55;3.72;;;31.10;95.60;;;;;;5093681;28;20647;-64
2023/06/25 10:24:55;;;;;;;4.30;4.07;;;31.20;95.90;;;;;;5093306;28;20224;-65
2023/06/25 10:27:34;;;;;;;4.40;4.05;;;31.40;96.00;;;;;;5093583;28;20704;-65
2023/06/25 10:30:11;;;;;;;4.03;3.72;;;31.50;96.00;;;;;;5093804;28;20239;-64
2023/06/25 10:32:41;;;;;;;4.47;4.10;;;31.70;94.10;;;;;;5062928;28;20215;-67
2023/06/25 10:35:09;;;;;;;6.55;4.03;;;31.90;94.70;;;;;;5092828;28;20742;-65
2023/06/25 10:37:37;;;;;;;3.95;3.75;;;31.60;91.70;;;;;;5092543;28;20235;-64
2023/06/25 10:40:06;;;;;;;4.20;3.90;;;31.30;92.00;;;;;;5093683;28;20317;-63
2023/06/25 10:42:36;;;;;;;4.95;4.65;;;31.40;95.10;;;;;;5093430;28;20269;-63
2023/06/25 10:45:05;;;;;;;4.40;4.10;;;31.70;96.10;;;;;;5093221;28;20213;-64
2023/06/25 10:47:33;;;;;;;4.30;4.10;;;32.00;93.80;;;;;;5093135;28;20227;-64
2023/06/25 10:50:01;;;;;;;4.28;4.07;;;32.20;93.10;;;;;;5093137;28;20204;-64
2023/06/25 10:52:30;;;;;;;4.53;4.28;;;32.50;95.30;;;;;;5060453;28;20212;-64
2023/06/25 10:55:00;;;;;;;4.68;4.43;;;32.80;94.60;;;;;;5091996;28;20583;-65
2023/06/25 10:57:31;;;;;;;6.10;4.25;;;33.00;95.20;;;;;;5093159;28;20227;-65
2023/06/25 11:00:00;;;;;;;4.53;4.00;;;33.10;91.20;;;;;;5093020;28;20208;-64
2023/06/25 11:02:28;;;;;;;4.90;4.60;;;32.90;90.60;;;;;;5059403;28;20251;-64
2023/06/25 11:04:58;;;;;;;5.30;4.80;;;33.00;91.30;;;;;;5092909;28;20204;-64
2023/06/25 11:07:26;;;;;;;4.65;4.35;;;33.00;90.40;;;;;;5093030;28;20204;-64
2023/06/25 11:09:55;;;;;;;4.40;4.20;;;33.20;89.80;;;;;;5092986;28;20208;-64
2023/06/25 11:12:23;;;;;;;5.70;4.32;;;33.30;90.70;;;;;;5092504;28;20261;-65
2023/06/25 11:14:51;;;;;;;4.90;4.38;;;33.60;90.40;;;;;;5090912;28;20663;-65
2023/06/25 11:17:20;;;;;;;4.68;4.35;;;33.80;85.00;;;;;;5092599;28;20707;-65
2023/06/25 11:19:51;;;;;;;4.68;4.28;;;34.00;86.40;;;;;;5073556;28;20246;-65
2023/06/25 11:22:19;;;;;;;5.22;4.53;;;34.10;85.50;;;;;;5082986;28;20713;-64
2023/06/25 11:24:46;;;;;;;5.45;4.57;;;34.40;85.40;;;;;;5076679;28;20235;-65
2023/06/25 11:27:23;;;;;;;5.13;4.07;;;34.60;85.40;;;;;;5074656;28;20240;-65
2023/06/25 11:29:52;;;;;;;4.75;4.43;;;34.80;80.50;;;;;;5076666;28;20289;-65
2023/06/25 11:32:23;;;;;;;6.35;4.43;;;35.00;79.90;;;;;;5091051;28;20718;-65
2023/06/25 11:34:51;;;;;;;5.18;4.70;;;35.30;80.20;;;;;;5076924;28;20816;-66
2023/06/25 11:37:19;;;;;;;5.00;4.53;;;35.40;80.00;;;;;;5082834;28;20197;-67
2023/06/25 11:39:48;;;;;;;4.88;4.53;;;35.60;81.90;;;;;;5092349;28;20204;-66
2023/06/25 11:42:17;;;;;;;4.80;4.40;;;35.80;78.30;;;;;;5092096;28;20220;-64
2023/06/25 11:44:45;;;;;;;4.75;4.45;;;35.70;78.20;;;;;;5091863;28;20672;-65
2023/06/25 11:47:14;;;;;;;4.72;4.32;;;35.70;74.20;;;;;;5092072;28;20196;-65
2023/06/25 11:49:52;;;;;;;4.88;4.57;;;35.80;74.00;;;;;;5092133;28;20297;-64
2023/06/25 11:52:20;;;;;;;4.88;4.57;;;35.80;76.00;;;;;;5091538;28;20314;-64
2023/06/25 11:54:48;;;;;;;5.35;4.80;;;36.10;73.40;;;;;;5090726;28;20279;-64
2023/06/25 11:57:17;;;;;;;4.70;4.40;;;36.30;78.10;;;;;;5092204;28;20202;-64
2023/06/25 11:59:45;;;;;;;4.25;4.05;;;36.30;73.10;;;;;;5092101;28;20287;-63
2023/06/25 12:02:13;;;;;;;4.18;3.97;;;36.30;72.50;;;;;;5091860;28;20307;-63
2023/06/25 12:04:41;;;;;;;4.43;4.13;;;36.00;70.10;;;;;;5091559;28;20219;-63
2023/06/25 12:07:10;;;;;;;4.88;4.57;;;36.00;71.20;;;;;;5090461;28;20192;-65
2023/06/25 12:09:38;;;;;;;4.68;4.32;;;36.10;72.10;;;;;;5090804;28;20635;-63
2023/06/25 12:12:06;;;;;;;4.43;4.10;;;35.80;69.70;;;;;;5087397;28;20254;-63
2023/06/25 12:14:34;;;;;;;5.30;4.78;;;35.90;72.30;;;;;;5073277;28;20227;-64
2023/06/25 12:17:02;;;;;;;4.43;4.13;;;35.80;71.00;;;;;;5075254;28;20203;-62
2023/06/25 12:19:30;;;;;;;4.47;3.90;;;35.70;69.10;;;;;;5071956;28;20204;-63
2023/06/25 12:21:58;;;;;;;4.50;4.20;;;35.80;71.00;;;;;;5069901;28;20786;-63
2023/06/25 12:24:27;;;;;;;4.43;4.10;;;36.00;68.80;;;;;;5071514;28;20306;-65
2023/06/25 12:26:55;;;;;;;4.70;4.40;;;36.10;69.10;;;;;;5074464;28;20240;-64
2023/06/25 12:29:24;;;;;;;5.68;5.07;;;36.30;70.20;;;;;;5075276;28;20247;-64
2023/06/25 12:31:51;;;;;;;4.72;4.35;;;36.50;68.80;;;;;;5070571;28;21055;-63
2023/06/25 12:34:19;;;;;;;4.97;4.10;;;36.50;67.70;;;;;;5075613;28;20219;-64
2023/06/25 12:36:47;;;;;;;5.07;4.88;;;36.50;68.40;;;;;;5076635;28;20243;-63
2023/06/25 12:39:15;;;;;;;4.72;4.43;;;36.70;69.50;;;;;;5074844;28;20215;-64
2023/06/25 12:41:44;;;;;;;4.57;4.18;;;36.90;65.50;;;;;;5075071;28;20274;-64
2023/06/25 12:44:12;;;;;;;4.28;4.05;;;37.00;69.10;;;;;;5072440;28;20216;-64
2023/06/25 12:46:40;;;;;;;4.50;4.25;;;36.80;64.90;;;;;;5072827;28;20295;-65
2023/06/25 12:49:08;;;;;;;3.72;3.63;;;36.50;65.40;;;;;;5069714;28;20287;-64
2023/06/25 12:51:36;;;;;;;4.57;4.28;;;36.30;64.40;;;;;;5074989;28;20693;-63